OING  Gorgan  Airport

Gorgan, Iran

Add Bookmark
ICAO OING
IATA GBT
Type Airport
Status Operational
Latitude
36° 54' 33" N
36.909401
Longitude
54° 24' 4" E
54.401299
Local (GMT +3.5 ) UTC
Dec 7, 2016 05:53 pm Dec 7, 2016 14:23
Sunrise-Sunset Local UTC
Begin Civil Twilight 06:22 am 02:52
Sunrise 06:51 am 03:21
Sunset 04:37 pm 13:07
End Civil Twilight 05:05 pm 13:35
VFR
VFR
MVFR
MVFR
IFR
IFR
LIFR
LIFR
Unknown
No Data

Current Weather

METAR Observed VFR
OING 071400Z 09006KT CAVOK 08/05 Q1021 Wed, Dec 7, 2016 @ 14:00 UTC
(23 Minutes ago)
Visual Flight Rules
Wind Visibility Conditions
090° at 6 knots (11 kph) 10 km or more
  • No significant weather
Temperatures Readings Precipitation
Current Temp
8°C
46°F
Dewpoint
5°C
41°F
Humidity 82%
Altimeter 30.15" Hg
Sea Level Pressure 1,021 mb
Field Elevation
155 m
509 ft
None Recorded
-
-

CheckWX.com is intended as a tool to help pilots better visualize weather data. It is not intended as a substitute for an official weather briefing obtained from a Flight Service Station. CheckWX.com does not meet the FAA requirements for an official pre-flight weather briefing. Therefore, it's important that pilots still call and obtain an official FSS pre-flight weather briefing.

© 2007-2016 CheckWX.com
14:23:16 UTC